createdAt,value
2023-02-12T00:01:59.529Z,19.70
2023-02-12T00:04:26.112Z,20.80
2023-02-12T00:06:52.583Z,18.27
2023-02-12T00:09:19.183Z,20.33
2023-02-12T00:11:45.765Z,17.30
2023-02-12T00:14:12.314Z,19.85
2023-02-12T00:16:38.816Z,21.60
2023-02-12T00:19:05.294Z,18.17
2023-02-12T00:21:31.892Z,20.00
2023-02-12T00:23:58.471Z,21.02
2023-02-12T00:26:25.362Z,19.25
2023-02-12T00:28:52.729Z,22.93
2023-02-12T00:31:25.733Z,23.08
2023-02-12T00:33:53.145Z,18.90
2023-02-12T00:36:25.248Z,20.00
2023-02-12T00:38:53.692Z,19.25
2023-02-12T00:41:21.806Z,18.90
2023-02-12T00:43:48.808Z,21.02
2023-02-12T00:46:15.671Z,18.52
2023-02-12T00:48:43.465Z,19.20
2023-02-12T00:51:10.653Z,17.20
2023-02-12T00:53:37.220Z,19.27
2023-02-12T00:56:04.340Z,18.08
2023-02-12T00:58:30.860Z,15.82
2023-02-12T01:00:59.491Z,19.20
2023-02-12T01:03:26.039Z,18.85
2023-02-12T01:05:53.818Z,19.85
2023-02-12T01:08:21.451Z,18.35
2023-02-12T01:10:57.085Z,18.90
2023-02-12T01:13:24.327Z,17.77
2023-02-12T01:16:00.946Z,17.77
2023-02-12T01:18:27.587Z,18.33
2023-02-12T01:20:54.049Z,20.38
2023-02-12T01:23:23.326Z,17.33
2023-02-12T01:25:49.860Z,20.33
2023-02-12T01:28:16.382Z,16.92
2023-02-12T01:30:44.249Z,15.52
2023-02-12T01:33:10.815Z,12.93
2023-02-12T01:35:38.132Z,16.63
2023-02-12T01:38:05.858Z,22.73
2023-02-12T01:40:32.397Z,18.67
2023-02-12T01:43:01.520Z,17.67
2023-02-12T01:45:34.251Z,14.95
2023-02-12T01:48:01.464Z,15.90
2023-02-12T01:50:28.416Z,17.38
2023-02-12T01:52:57.765Z,19.27
2023-02-12T01:55:24.650Z,17.83
2023-02-12T01:57:51.536Z,15.27
2023-02-12T02:00:24.741Z,22.27
2023-02-12T02:02:56.366Z,16.15
2023-02-12T02:05:30.760Z,18.23
2023-02-12T02:07:57.384Z,17.58
2023-02-12T02:10:25.709Z,16.33
2023-02-12T02:12:54.081Z,16.38
2023-02-12T02:15:20.718Z,17.30
2023-02-12T02:18:17.786Z,18.67
2023-02-12T02:21:10.932Z,22.65
2023-02-12T02:23:48.112Z,21.00
2023-02-12T02:26:54.421Z,28.23
2023-02-12T02:29:35.406Z,25.65
2023-02-12T02:32:32.651Z,24.15
2023-02-12T02:35:10.860Z,28.67
2023-02-12T02:37:51.362Z,32.20
2023-02-12T02:40:22.685Z,26.88
2023-02-12T02:42:53.788Z,26.48
2023-02-12T02:45:30.257Z,28.05
2023-02-12T02:48:02.400Z,21.90
2023-02-12T02:50:34.768Z,18.63
2023-02-12T02:53:06.062Z,18.73
2023-02-12T02:55:38.600Z,17.83
2023-02-12T02:58:25.603Z,18.30
2023-02-12T03:01:14.674Z,16.50
2023-02-12T03:03:56.618Z,14.70
2023-02-12T03:06:30.509Z,15.55
2023-02-12T03:09:02.008Z,17.67
2023-02-12T03:11:31.382Z,18.52
2023-02-12T03:14:05.723Z,18.17
2023-02-12T03:16:38.561Z,20.63
2023-02-12T03:19:11.248Z,17.00
2023-02-12T03:21:46.396Z,16.35
2023-02-12T03:24:21.929Z,16.92
2023-02-12T03:26:59.502Z,19.20
2023-02-12T03:29:26.571Z,20.25
2023-02-12T03:31:55.656Z,17.42
2023-02-12T03:34:33.298Z,16.88
2023-02-12T03:37:08.637Z,17.25
2023-02-12T03:39:46.154Z,16.90
2023-02-12T03:42:55.211Z,15.88
2023-02-12T03:45:46.505Z,15.52
2023-02-12T03:48:28.208Z,28.55
2023-02-12T03:51:00.844Z,15.50
2023-02-12T03:53:29.053Z,12.20
2023-02-12T03:58:34.330Z,17.15
2023-02-12T04:01:02.337Z,20.48
2023-02-12T04:03:30.143Z,15.07
2023-02-12T04:05:57.201Z,16.90
2023-02-12T04:08:25.946Z,14.88
2023-02-12T04:11:20.612Z,17.98
2023-02-12T04:13:52.737Z,17.70
2023-02-12T04:16:41.811Z,15.00
2023-02-12T04:19:15.045Z,16.75
2023-02-12T04:22:07.655Z,19.48
2023-02-12T04:24:49.917Z,21.27
2023-02-12T04:27:44.773Z,16.20
2023-02-12T04:30:24.068Z,16.75
2023-02-12T04:32:56.412Z,17.73
2023-02-12T04:35:36.783Z,17.00
2023-02-12T04:38:13.081Z,19.23
2023-02-12T04:40:41.292Z,16.48
2023-02-12T04:45:36.135Z,13.95
2023-02-12T04:50:39.045Z,13.45
2023-02-12T04:53:06.224Z,18.40
2023-02-12T04:55:32.925Z,17.87
2023-02-12T04:57:59.608Z,19.85
2023-02-12T05:00:26.302Z,14.85
2023-02-12T05:02:52.787Z,15.90
2023-02-12T05:05:19.570Z,15.82
2023-02-12T05:07:46.145Z,17.98
2023-02-12T05:10:12.837Z,20.55
2023-02-12T05:12:39.395Z,18.70
2023-02-12T05:15:06.036Z,20.50
2023-02-12T05:17:32.645Z,14.60
2023-02-12T05:19:59.230Z,17.55
2023-02-12T05:22:25.944Z,18.95
2023-02-12T05:24:52.651Z,18.65
2023-02-12T05:27:19.231Z,17.73
2023-02-12T05:29:45.995Z,17.20
2023-02-12T05:32:12.618Z,19.33
2023-02-12T05:34:39.183Z,16.65
2023-02-12T05:37:05.862Z,15.55
2023-02-12T05:39:32.492Z,16.58
2023-02-12T05:41:59.135Z,16.00
2023-02-12T05:44:25.628Z,17.15
2023-02-12T05:46:52.321Z,21.30
2023-02-12T05:49:18.872Z,21.17
2023-02-12T05:51:45.457Z,18.35
2023-02-12T05:54:12.116Z,20.13
2023-02-12T05:56:44.568Z,20.05
2023-02-12T05:59:29.046Z,16.13
2023-02-12T06:01:55.576Z,17.05
2023-02-12T06:04:29.142Z,17.08
2023-02-12T06:06:56.707Z,18.27
2023-02-12T06:09:24.063Z,14.43
2023-02-12T06:11:50.752Z,18.48
2023-02-12T06:14:19.186Z,17.83
2023-02-12T06:16:48.451Z,13.55
2023-02-12T06:19:15.352Z,16.05
2023-02-12T06:21:42.290Z,12.55
2023-02-12T06:24:11.910Z,15.23
2023-02-12T06:26:38.533Z,15.27
2023-02-12T06:29:05.376Z,15.32
2023-02-12T06:31:35.471Z,16.15
2023-02-12T06:34:04.885Z,16.23
2023-02-12T06:36:31.443Z,13.77
2023-02-12T06:38:58.142Z,20.40
2023-02-12T06:41:24.727Z,14.38
2023-02-12T06:43:51.194Z,18.20
2023-02-12T06:46:17.780Z,15.52
2023-02-12T06:48:44.281Z,23.10
2023-02-12T06:51:17.883Z,17.63
2023-02-12T06:53:45.234Z,21.77
2023-02-12T06:56:12.793Z,18.70
2023-02-12T06:58:41.900Z,17.75
2023-02-12T07:01:20.818Z,18.45
2023-02-12T07:03:52.770Z,20.17
2023-02-12T07:06:19.719Z,21.52
2023-02-12T07:08:46.693Z,20.40
2023-02-12T07:11:13.450Z,23.88
2023-02-12T07:13:44.511Z,22.83
2023-02-12T07:16:16.167Z,23.92
2023-02-12T07:18:44.195Z,21.27
2023-02-12T07:21:12.069Z,24.02
2023-02-12T07:23:39.174Z,24.05
2023-02-12T07:26:08.387Z,26.27
2023-02-12T07:28:35.560Z,21.13
2023-02-12T07:31:13.254Z,26.42
2023-02-12T07:36:11.920Z,26.27
2023-02-12T07:38:38.929Z,31.98
2023-02-12T07:41:14.840Z,27.77
2023-02-12T07:43:43.081Z,25.48
2023-02-12T07:46:16.996Z,29.05
2023-02-12T07:48:44.369Z,27.65
2023-02-12T07:51:14.112Z,29.57
2023-02-12T07:53:41.453Z,34.47
2023-02-12T07:56:10.324Z,29.17
2023-02-12T07:58:38.306Z,30.17
2023-02-12T08:01:22.801Z,31.42
2023-02-12T08:03:50.449Z,29.75
2023-02-12T08:06:19.744Z,30.10
2023-02-12T08:08:46.799Z,33.95
2023-02-12T08:11:14.595Z,30.30
2023-02-12T08:13:41.474Z,31.77
2023-02-12T08:16:16.062Z,41.58
2023-02-12T08:18:43.059Z,36.70
2023-02-12T08:21:18.719Z,38.53
2023-02-12T08:23:45.911Z,36.10
2023-02-12T08:26:14.786Z,31.13
2023-02-12T08:28:47.376Z,40.35
2023-02-12T08:31:17.279Z,37.60
2023-02-12T08:33:45.149Z,46.10
2023-02-12T08:36:14.371Z,40.63
2023-02-12T08:38:41.921Z,34.65
2023-02-12T08:41:18.668Z,43.90
2023-02-12T08:46:15.898Z,38.55
2023-02-12T08:48:43.776Z,35.45
2023-02-12T08:51:13.085Z,39.35
2023-02-12T08:53:40.976Z,43.85
2023-02-12T08:56:07.771Z,36.25
2023-02-12T08:58:35.505Z,36.35
2023-02-12T09:01:02.837Z,31.70
2023-02-12T09:03:29.473Z,34.15
2023-02-12T09:05:56.411Z,37.53
2023-02-12T09:08:23.170Z,26.45
2023-02-12T09:10:49.761Z,31.23
2023-02-12T09:13:16.245Z,30.42
2023-02-12T09:15:45.054Z,33.20
2023-02-12T09:18:13.870Z,25.73
2023-02-12T09:20:43.538Z,24.63
2023-02-12T09:23:12.092Z,26.00
2023-02-12T09:25:43.600Z,31.17
2023-02-12T09:28:11.902Z,24.52
2023-02-12T09:30:39.412Z,24.30
2023-02-12T09:33:07.868Z,24.38
2023-02-12T09:35:35.333Z,22.55
2023-02-12T09:38:02.674Z,37.50
2023-02-12T09:40:52.232Z,24.15
2023-02-12T09:43:39.449Z,23.23
2023-02-12T09:46:26.344Z,13.65
2023-02-12T09:49:08.249Z,52.20
2023-02-12T09:51:36.184Z,46.22
2023-02-12T09:54:12.185Z,41.70
2023-02-12T09:56:43.115Z,14.40
2023-02-12T09:59:13.316Z,6.72
2023-02-12T10:01:39.994Z,3.92
2023-02-12T10:04:06.606Z,10.65
2023-02-12T10:06:40.803Z,16.10
2023-02-12T10:09:28.212Z,7.22
2023-02-12T10:12:10.458Z,4.85
2023-02-12T10:14:55.917Z,4.97
2023-02-12T10:17:25.147Z,4.05
2023-02-12T10:20:21.634Z,4.85
2023-02-12T10:23:12.511Z,4.50
2023-02-12T10:25:52.226Z,4.30
2023-02-12T10:28:27.216Z,4.35
2023-02-12T10:31:10.857Z,6.20
2023-02-12T10:33:44.003Z,6.13
2023-02-12T10:36:45.848Z,7.78
2023-02-12T10:39:22.532Z,6.03
2023-02-12T10:41:58.177Z,7.05
2023-02-12T10:44:24.938Z,8.50
2023-02-12T10:46:51.478Z,5.88
2023-02-12T10:49:19.944Z,7.00
2023-02-12T10:52:04.686Z,7.40
2023-02-12T10:54:42.900Z,5.80
2023-02-12T10:57:17.188Z,6.00
2023-02-12T10:59:46.564Z,5.10
2023-02-12T11:02:26.264Z,7.45
2023-02-12T11:04:54.522Z,5.38
2023-02-12T11:07:22.737Z,5.28
2023-02-12T11:09:51.076Z,3.92
2023-02-12T11:12:30.255Z,4.35
2023-02-12T11:15:02.850Z,5.38
2023-02-12T11:17:42.193Z,6.45
2023-02-12T11:20:17.895Z,4.32
2023-02-12T11:23:03.364Z,4.55
2023-02-12T11:25:32.112Z,2.72
2023-02-12T11:28:11.663Z,3.75
2023-02-12T11:30:49.525Z,4.43
2023-02-12T11:33:22.601Z,5.20
2023-02-12T11:35:52.758Z,3.90
2023-02-12T11:38:34.527Z,3.15
2023-02-12T11:41:06.853Z,4.57
2023-02-12T11:43:35.329Z,2.40
2023-02-12T11:46:03.145Z,2.95
2023-02-12T11:48:34.017Z,1.55
2023-02-12T11:51:03.465Z,2.95
2023-02-12T11:53:35.263Z,1.33
2023-02-12T11:56:05.586Z,1.92
2023-02-12T11:58:32.170Z,0.90
2023-02-12T12:01:19.422Z,1.20
2023-02-12T12:03:56.025Z,1.65
2023-02-12T12:06:29.011Z,3.33
2023-02-12T12:09:07.263Z,2.00
2023-02-12T12:11:36.646Z,1.52
2023-02-12T12:14:15.514Z,1.77
2023-02-12T12:16:44.164Z,1.13
2023-02-12T12:19:19.781Z,1.90
2023-02-12T12:21:55.738Z,1.60
2023-02-12T12:24:29.015Z,1.77
2023-02-12T12:27:14.401Z,0.65
2023-02-12T12:29:53.625Z,0.77
2023-02-12T12:32:22.821Z,2.13
2023-02-12T12:34:49.501Z,1.15
2023-02-12T12:37:43.961Z,1.70
2023-02-12T12:40:28.611Z,2.03
2023-02-12T12:43:14.078Z,1.95
2023-02-12T12:46:00.637Z,1.92
2023-02-12T12:48:38.635Z,2.38
2023-02-12T12:51:26.426Z,1.67
2023-02-12T12:54:07.012Z,2.53
2023-02-12T12:56:36.284Z,3.30
2023-02-12T12:59:21.427Z,2.53
2023-02-12T13:02:19.076Z,1.80
2023-02-12T13:07:30.304Z,1.48
2023-02-12T13:10:38.629Z,3.05
2023-02-12T13:13:32.714Z,5.13
2023-02-12T13:16:15.781Z,4.30
2023-02-12T13:18:57.355Z,3.30
2023-02-12T13:21:55.070Z,3.80
2023-02-12T13:26:57.365Z,4.25
2023-02-12T13:29:38.544Z,3.97
2023-02-12T13:32:13.366Z,4.30
2023-02-12T13:34:43.159Z,4.82
2023-02-12T13:37:18.538Z,3.45
2023-02-12T13:39:47.962Z,5.32
2023-02-12T13:42:26.757Z,6.65
2023-02-12T13:45:15.333Z,7.47
2023-02-12T13:48:00.573Z,5.15
2023-02-12T13:51:01.430Z,4.93
2023-02-12T13:53:45.374Z,4.88
2023-02-12T13:56:27.970Z,3.80
2023-02-12T13:58:55.554Z,4.05
2023-02-12T14:01:37.522Z,5.32
2023-02-12T14:04:37.544Z,5.63
2023-02-12T14:07:06.985Z,5.03
2023-02-12T14:09:40.868Z,5.13
2023-02-12T14:12:11.887Z,4.10
2023-02-12T14:14:46.077Z,4.05
2023-02-12T14:17:30.482Z,4.57
2023-02-12T14:20:08.186Z,3.42
2023-02-12T14:22:34.637Z,5.72
2023-02-12T14:25:22.661Z,4.30
2023-02-12T14:27:50.624Z,4.72
2023-02-12T14:30:17.051Z,2.90
2023-02-12T14:32:57.025Z,3.38
2023-02-12T14:35:26.214Z,3.65
2023-02-12T14:37:58.698Z,3.75
2023-02-12T14:40:34.359Z,4.00
2023-02-12T14:43:03.398Z,4.70
2023-02-12T14:45:36.014Z,5.15
2023-02-12T14:48:04.756Z,3.38
2023-02-12T14:50:41.306Z,4.65
2023-02-12T14:53:25.331Z,8.00
2023-02-12T14:55:52.599Z,7.90
2023-02-12T14:58:22.289Z,6.80
2023-02-12T15:00:55.978Z,7.78
2023-02-12T15:03:27.362Z,12.50
2023-02-12T15:06:22.430Z,9.48
2023-02-12T15:08:56.132Z,10.93
2023-02-12T15:11:47.297Z,10.73
2023-02-12T15:14:20.325Z,12.88
2023-02-12T15:16:52.772Z,13.23
2023-02-12T15:19:43.489Z,11.98
2023-02-12T15:22:19.823Z,13.00
2023-02-12T15:24:46.466Z,12.77
2023-02-12T15:27:17.309Z,12.05
2023-02-12T15:29:47.765Z,11.45
2023-02-12T15:32:25.512Z,11.10
2023-02-12T15:34:53.274Z,11.05
2023-02-12T15:37:24.919Z,11.82
2023-02-12T15:39:54.837Z,10.05
2023-02-12T15:42:25.172Z,9.20
2023-02-12T15:44:51.776Z,8.73
2023-02-12T15:47:18.538Z,12.77
2023-02-12T15:49:45.080Z,11.40
2023-02-12T15:52:19.839Z,9.88
2023-02-12T15:54:47.359Z,10.65
2023-02-12T15:57:21.605Z,11.02
2023-02-12T15:59:52.968Z,8.30
2023-02-12T16:02:25.357Z,9.07
2023-02-12T16:04:51.953Z,16.65
2023-02-12T16:07:19.536Z,13.85
2023-02-12T16:09:47.346Z,13.27
2023-02-12T16:12:17.580Z,20.13
2023-02-12T16:14:53.642Z,19.20
2023-02-12T16:17:25.848Z,18.48
2023-02-12T16:20:04.650Z,28.42
2023-02-12T16:22:37.923Z,22.98
2023-02-12T16:25:13.880Z,17.85
2023-02-12T16:27:41.013Z,25.35
2023-02-12T16:30:27.267Z,21.58
2023-02-12T16:32:54.198Z,16.13
2023-02-12T16:35:32.875Z,15.15
2023-02-12T16:38:27.598Z,13.93
2023-02-12T16:41:19.225Z,11.55
2023-02-12T16:43:47.257Z,11.50
2023-02-12T16:46:16.250Z,9.05
2023-02-12T16:48:54.194Z,10.57
2023-02-12T16:51:26.941Z,9.27
2023-02-12T16:53:57.936Z,10.32
2023-02-12T16:56:29.113Z,9.68
2023-02-12T16:59:00.509Z,19.08
2023-02-12T17:01:31.332Z,24.10
2023-02-12T17:04:00.122Z,25.95
2023-02-12T17:06:29.775Z,21.40
2023-02-12T17:08:57.314Z,23.30
2023-02-12T17:11:25.197Z,21.00
2023-02-12T17:13:53.775Z,34.90
2023-02-12T17:16:30.429Z,25.88
2023-02-12T17:18:58.786Z,27.92
2023-02-12T17:21:37.544Z,20.75
2023-02-12T17:24:13.757Z,20.80
2023-02-12T17:26:40.385Z,19.15
2023-02-12T17:29:07.000Z,14.80
2023-02-12T17:31:34.692Z,14.52
2023-02-12T17:34:01.350Z,13.52
2023-02-12T17:36:28.047Z,13.48
2023-02-12T17:38:54.535Z,13.55
2023-02-12T17:41:21.406Z,15.25
2023-02-12T17:43:48.108Z,15.65
2023-02-12T17:46:20.019Z,13.38
2023-02-12T17:48:46.629Z,15.88
2023-02-12T17:51:13.387Z,19.50
2023-02-12T17:53:40.929Z,17.15
2023-02-12T17:56:16.168Z,14.82
2023-02-12T17:58:43.304Z,18.50
2023-02-12T18:01:12.359Z,18.75
2023-02-12T18:03:39.492Z,21.95
2023-02-12T18:06:06.770Z,26.33
2023-02-12T18:08:33.673Z,26.03
2023-02-12T18:11:05.433Z,30.58
2023-02-12T18:13:32.101Z,23.35
2023-02-12T18:15:58.673Z,28.67
2023-02-12T18:18:25.312Z,26.40
2023-02-12T18:20:51.790Z,31.63
2023-02-12T18:23:18.473Z,41.05
2023-02-12T18:25:45.181Z,43.30
2023-02-12T18:28:12.135Z,38.90
2023-02-12T18:30:40.618Z,39.03
2023-02-12T18:33:07.322Z,35.50
2023-02-12T18:35:34.220Z,31.58
2023-02-12T18:38:00.810Z,22.42
2023-02-12T18:40:27.436Z,17.23
2023-02-12T18:42:54.292Z,20.05
2023-02-12T18:45:20.831Z,17.88
2023-02-12T18:47:47.472Z,19.83
2023-02-12T18:50:14.018Z,19.70
2023-02-12T18:52:40.590Z,17.67
2023-02-12T18:55:08.151Z,16.33
2023-02-12T18:57:34.745Z,13.60
2023-02-12T19:00:01.259Z,14.02
2023-02-12T19:02:27.828Z,16.70
2023-02-12T19:04:54.515Z,17.40
2023-02-12T19:07:21.051Z,17.05
2023-02-12T19:09:47.657Z,17.92
2023-02-12T19:12:14.125Z,16.83
2023-02-12T19:14:40.679Z,15.20
2023-02-12T19:17:07.294Z,17.55
2023-02-12T19:19:33.837Z,15.45
2023-02-12T19:22:00.373Z,18.65
2023-02-12T19:24:37.672Z,32.03
2023-02-12T19:27:11.184Z,26.92
2023-02-12T19:29:37.833Z,23.58
2023-02-12T19:32:04.627Z,24.63
2023-02-12T19:34:33.745Z,18.02
2023-02-12T19:37:00.318Z,20.48
2023-02-12T19:39:26.837Z,19.27
2023-02-12T19:41:53.431Z,20.60
2023-02-12T19:44:22.795Z,22.67
2023-02-12T19:46:50.084Z,24.65
2023-02-12T19:49:22.284Z,22.43
2023-02-12T19:51:49.717Z,25.98
2023-02-12T19:54:17.971Z,19.20
2023-02-12T19:56:45.161Z,23.58
2023-02-12T19:59:14.629Z,16.20
2023-02-12T20:01:41.460Z,15.05
2023-02-12T20:04:08.016Z,15.32
2023-02-12T20:06:36.948Z,16.50
2023-02-12T20:09:06.304Z,16.10
2023-02-12T20:11:35.322Z,19.98
2023-02-12T20:14:02.069Z,16.00
2023-02-12T20:16:30.105Z,16.45
2023-02-12T20:21:27.891Z,13.63
2023-02-12T20:23:55.335Z,16.30
2023-02-12T20:26:22.732Z,19.52
2023-02-12T20:28:50.068Z,18.23
2023-02-12T20:31:22.861Z,19.05
2023-02-12T20:34:03.827Z,17.17
2023-02-12T20:36:33.051Z,17.13
2023-02-12T20:38:59.755Z,24.80
2023-02-12T20:41:27.500Z,19.90
2023-02-12T20:43:54.261Z,16.77
2023-02-12T20:46:23.799Z,21.27
2023-02-12T20:48:50.547Z,19.48
2023-02-12T20:51:20.357Z,21.55
2023-02-12T20:53:47.183Z,29.02
2023-02-12T20:56:21.915Z,24.80
2023-02-12T20:58:49.037Z,24.95
2023-02-12T21:01:18.244Z,24.95
2023-02-12T21:03:45.262Z,18.13
2023-02-12T21:06:13.041Z,23.77
2023-02-12T21:08:41.175Z,20.08
2023-02-12T21:13:34.112Z,29.52
2023-02-12T21:16:09.843Z,21.45
2023-02-12T21:18:36.840Z,21.77
2023-02-12T21:21:06.137Z,21.52
2023-02-12T21:23:36.144Z,35.05
2023-02-12T21:26:08.475Z,30.58
2023-02-12T21:28:35.084Z,24.83
2023-02-12T21:31:12.439Z,30.02
2023-02-12T21:33:40.235Z,18.98
2023-02-12T21:36:09.224Z,19.67
2023-02-12T21:38:37.084Z,30.95
2023-02-12T21:41:21.247Z,32.05
2023-02-12T21:43:51.612Z,33.05
2023-02-12T21:46:20.113Z,29.00
2023-02-12T21:48:47.303Z,17.98
2023-02-12T21:51:25.391Z,26.70
2023-02-12T21:56:20.224Z,31.77
2023-02-12T21:58:48.048Z,20.95
2023-02-12T22:01:21.477Z,21.10
2023-02-12T22:03:48.341Z,31.23
2023-02-12T22:06:16.332Z,19.13
2023-02-12T22:08:42.956Z,21.10
2023-02-12T22:11:11.158Z,25.63
2023-02-12T22:16:25.858Z,16.37
2023-02-12T22:18:54.422Z,12.40
2023-02-12T22:21:22.216Z,16.42
2023-02-12T22:23:48.951Z,19.95
2023-02-12T22:26:21.180Z,13.80
2023-02-12T22:28:51.021Z,16.52
2023-02-12T22:31:20.759Z,25.75
2023-02-12T22:33:52.489Z,23.52
2023-02-12T22:36:19.310Z,16.70
2023-02-12T22:38:45.870Z,20.23
2023-02-12T22:41:12.423Z,15.30
2023-02-12T22:43:40.210Z,33.20
2023-02-12T22:46:08.814Z,27.98
2023-02-12T22:48:35.828Z,18.63
2023-02-12T22:51:12.769Z,27.90
2023-02-12T22:53:39.393Z,19.20
2023-02-12T22:56:07.191Z,26.75
2023-02-12T22:58:34.685Z,21.75
2023-02-12T23:01:19.251Z,22.27
2023-02-12T23:03:46.221Z,29.95
2023-02-12T23:06:19.048Z,29.75
2023-02-12T23:08:52.333Z,23.48
2023-02-12T23:11:19.613Z,26.63
2023-02-12T23:13:46.948Z,28.07
2023-02-12T23:16:13.857Z,24.40
2023-02-12T23:18:40.355Z,27.48
2023-02-12T23:21:06.912Z,29.40
2023-02-12T23:23:33.736Z,31.02
2023-02-12T23:26:00.445Z,36.97
2023-02-12T23:28:27.080Z,35.25
2023-02-12T23:30:54.222Z,23.48
2023-02-12T23:33:21.019Z,30.10
2023-02-12T23:35:48.467Z,34.88
2023-02-12T23:38:15.938Z,21.98
2023-02-12T23:40:43.076Z,15.20
2023-02-12T23:43:10.305Z,24.73
2023-02-12T23:45:37.062Z,37.83
2023-02-12T23:48:03.756Z,63.25
2023-02-12T23:50:30.372Z,29.35
2023-02-12T23:52:58.409Z,23.08
2023-02-12T23:55:24.974Z,22.98
2023-02-12T23:57:51.599Z,41.53
